Time;durP1;ratioP1;P1;durP2;ratioP2;P2;SDS_P1;SDS_P2;PMS_P1;PMS_P2;Temp;Humidity;BMP_temperature;BMP_pressure;BME280_temperature;BME280_humidity;BME280_pressure;Samples;Min_cycle;Max_cycle;Signal;HPM_P1;HPM_P2
2024/01/06 00:01:33;;;;;;;3.63;2.60;;;5.60;84.80;;;7.24;61.02;96420.44;5070747;28;20415;-69
2024/01/06 00:04:01;;;;;;;4.13;2.23;;;5.50;85.50;;;7.07;61.50;96412.53;5070704;28;20044;-69
2024/01/06 00:06:28;;;;;;;5.20;2.03;;;5.40;85.70;;;7.10;61.70;96417.50;5071124;28;20049;-69
2024/01/06 00:08:56;;;;;;;3.80;2.20;;;5.40;86.00;;;7.21;61.45;96410.16;5071049;28;20484;-70
2024/01/06 00:11:24;;;;;;;3.93;1.93;;;5.50;85.70;;;7.22;61.67;96417.94;5070922;28;20056;-69
2024/01/06 00:13:51;;;;;;;4.50;2.50;;;5.60;84.70;;;7.24;61.08;96412.50;5070989;28;20055;-69
2024/01/06 00:16:20;;;;;;;5.30;2.53;;;5.60;85.20;;;7.26;61.17;96421.91;5086366;28;20040;-69
2024/01/06 00:18:48;;;;;;;3.80;1.77;;;5.60;85.10;;;7.30;60.88;96423.22;5070950;28;20052;-69
2024/01/06 00:21:16;;;;;;;5.10;1.93;;;5.50;85.20;;;7.38;60.78;96419.72;5068971;28;20045;-69
2024/01/06 00:23:43;;;;;;;4.37;1.43;;;5.60;84.50;;;7.44;60.86;96420.84;5071006;28;20040;-69
2024/01/06 00:26:11;;;;;;;3.07;1.60;;;5.70;84.10;;;7.41;60.85;96418.56;5070612;28;20048;-69
2024/01/06 00:28:39;;;;;;;6.23;1.90;;;5.70;83.40;;;7.46;60.65;96419.69;5070984;28;20048;-69
2024/01/06 00:31:07;;;;;;;3.83;1.77;;;5.80;83.70;;;7.53;60.32;96424.31;5070428;28;20048;-69
2024/01/06 00:33:35;;;;;;;3.80;1.80;;;5.80;82.80;;;7.55;60.21;96414.38;5070371;28;20067;-69
2024/01/06 00:36:03;;;;;;;5.50;2.73;;;5.80;82.40;;;7.56;60.36;96426.59;5070383;28;20044;-68
2024/01/06 00:38:31;;;;;;;4.57;1.93;;;5.80;82.20;;;7.62;60.15;96420.63;5070757;28;20052;-69
2024/01/06 00:40:58;;;;;;;2.03;1.37;;;5.90;82.60;;;7.69;59.93;96425.03;5070272;28;20040;-69
2024/01/06 00:43:26;;;;;;;3.50;1.43;;;5.90;82.10;;;7.74;60.09;96426.38;5070479;28;20051;-68
2024/01/06 00:45:53;;;;;;;2.57;2.00;;;6.00;81.60;;;7.78;59.69;96430.31;5069624;28;20051;-69
2024/01/06 00:48:21;;;;;;;3.37;1.50;;;6.00;81.50;;;7.80;59.62;96418.53;5070615;28;20043;-69
2024/01/06 00:50:49;;;;;;;3.30;2.00;;;6.00;81.30;;;7.85;59.67;96431.25;5070449;28;20040;-69
2024/01/06 00:53:16;;;;;;;4.57;1.90;;;6.10;80.90;;;7.86;59.66;96430.28;5070246;28;20051;-69
2024/01/06 00:55:44;;;;;;;4.03;1.67;;;6.10;80.90;;;7.81;59.80;96432.59;5070928;28;20049;-69
2024/01/06 00:58:13;;;;;;;5.97;2.33;;;6.00;80.60;;;7.84;59.47;96441.03;5086031;28;20047;-69
2024/01/06 01:00:40;;;;;;;6.70;1.63;;;6.00;80.70;;;7.86;59.41;96443.53;5070205;28;20134;-69
2024/01/06 01:03:08;;;;;;;2.83;1.80;;;6.10;80.90;;;7.82;59.49;96447.53;5069035;28;20051;-69
2024/01/06 01:05:35;;;;;;;5.70;2.10;;;6.00;80.80;;;7.82;59.35;96450.97;5074213;28;20044;-69
2024/01/06 01:08:03;;;;;;;5.83;1.83;;;6.10;80.90;;;7.85;59.49;96449.81;5074405;28;20040;-68
2024/01/06 01:10:31;;;;;;;2.70;1.73;;;6.00;81.10;;;7.80;58.92;96454.81;5073992;28;20063;-69
2024/01/06 01:12:58;;;;;;;5.70;1.40;;;6.00;80.50;;;7.77;59.40;96465.75;5074179;28;20425;-69
2024/01/06 01:15:26;;;;;;;5.30;1.90;;;5.90;80.60;;;7.76;59.27;96461.47;5072611;28;20382;-69
2024/01/06 01:17:54;;;;;;;3.57;2.30;;;6.00;80.70;;;7.78;59.30;96467.41;5074899;28;20040;-69
2024/01/06 01:20:21;;;;;;;6.30;2.20;;;6.00;81.00;;;7.78;59.51;96468.22;5070455;28;20056;-69
2024/01/06 01:22:49;;;;;;;3.53;2.27;;;6.00;80.70;;;7.78;59.20;96468.22;5072969;28;20059;-69
2024/01/06 01:25:17;;;;;;;4.17;2.03;;;6.00;80.40;;;7.78;59.25;96473.53;5073044;28;20040;-69
2024/01/06 01:27:44;;;;;;;3.83;1.90;;;6.00;80.30;;;7.81;59.11;96469.69;5073813;28;20056;-69
2024/01/06 01:30:13;;;;;;;3.60;2.13;;;6.00;80.30;;;7.79;59.07;96477.00;5073510;28;20468;-69
2024/01/06 01:32:41;;;;;;;6.70;2.00;;;6.00;80.80;;;7.81;59.04;96475.84;5073706;28;20052;-69
2024/01/06 01:35:09;;;;;;;5.03;2.10;;;6.00;80.20;;;7.82;59.14;96476.66;5073660;28;20444;-69
2024/01/06 01:37:37;;;;;;;5.53;2.30;;;6.00;80.30;;;7.81;59.37;96478.50;5073546;28;20048;-69
2024/01/06 01:40:05;;;;;;;4.57;1.90;;;6.00;80.30;;;7.78;59.01;96488.59;5073286;28;20037;-69
2024/01/06 01:42:33;;;;;;;8.27;3.53;;;5.90;80.50;;;7.77;59.10;96482.47;5073664;28;20059;-69
2024/01/06 01:45:01;;;;;;;8.97;1.77;;;5.90;80.70;;;7.78;59.14;96485.97;5073816;28;20041;-69
2024/01/06 01:47:29;;;;;;;4.67;2.67;;;5.90;80.40;;;7.78;59.10;96489.44;5073491;28;20439;-69
2024/01/06 01:49:57;;;;;;;5.83;1.67;;;6.00;80.20;;;7.78;58.90;96485.97;5073205;28;20037;-69
2024/01/06 01:52:25;;;;;;;4.20;2.67;;;5.90;80.30;;;7.78;58.80;96491.25;5071698;28;22299;-69
2024/01/06 01:54:53;;;;;;;5.10;2.20;;;6.00;79.90;;;7.78;58.84;96496.56;5072019;28;20048;-70
2024/01/06 01:57:22;;;;;;;4.00;1.70;;;5.90;79.90;;;7.78;58.86;96500.03;5072082;28;20048;-69
2024/01/06 01:59:50;;;;;;;3.37;1.57;;;5.90;79.80;;;7.77;58.73;96495.72;5072007;28;20496;-69
2024/01/06 02:02:18;;;;;;;5.47;2.50;;;5.90;80.00;;;7.74;58.68;96501.38;5073094;28;20044;-69
2024/01/06 02:04:46;;;;;;;4.50;1.60;;;5.90;79.80;;;7.75;58.74;96503.00;5071790;28;20071;-69
2024/01/06 02:07:14;;;;;;;3.50;1.60;;;5.90;80.00;;;7.74;58.56;96505.84;5071898;28;20040;-69
2024/01/06 02:09:42;;;;;;;4.00;1.43;;;5.90;79.70;;;7.72;58.51;96507.84;5070979;28;20040;-69
2024/01/06 02:12:09;;;;;;;2.10;1.40;;;5.90;79.50;;;7.71;58.74;96503.53;5072589;28;20369;-69
2024/01/06 02:14:37;;;;;;;4.17;1.60;;;5.90;79.70;;;7.70;58.75;96502.72;5071469;28;20045;-69
2024/01/06 02:17:04;;;;;;;4.07;1.90;;;5.90;79.90;;;7.71;58.89;96503.53;5071141;28;20051;-69
2024/01/06 02:19:32;;;;;;;4.10;1.60;;;5.90;79.50;;;7.74;58.61;96500.56;5072597;28;20040;-69
2024/01/06 02:22:00;;;;;;;4.70;1.53;;;6.00;79.20;;;7.74;58.53;96506.66;5071618;28;20055;-69
2024/01/06 02:24:27;;;;;;;4.77;2.47;;;6.00;78.80;;;7.74;58.47;96505.84;5072467;28;20048;-69
2024/01/06 02:26:55;;;;;;;3.30;1.37;;;5.90;78.90;;;7.74;58.40;96504.03;5072846;28;20044;-69
2024/01/06 02:29:23;;;;;;;4.23;1.90;;;6.00;78.30;;;7.74;58.14;96508.50;5070793;28;20067;-69
2024/01/06 02:31:50;;;;;;;5.30;1.70;;;6.00;78.20;;;7.71;58.40;96519.44;5072134;28;20075;-69
2024/01/06 02:34:18;;;;;;;4.30;1.47;;;6.00;78.00;;;7.72;58.19;96518.44;5071245;28;20527;-69
2024/01/06 02:36:45;;;;;;;4.00;1.47;;;5.90;77.90;;;7.72;58.20;96529.84;5073121;28;20052;-69
2024/01/06 02:39:13;;;;;;;3.73;1.50;;;6.00;78.00;;;7.73;58.08;96525.38;5072599;28;20048;-69
2024/01/06 02:41:41;;;;;;;4.27;1.77;;;6.00;77.70;;;7.71;58.19;96532.66;5072264;28;20056;-69
2024/01/06 02:44:08;;;;;;;5.27;1.97;;;5.90;77.60;;;7.70;58.18;96537.16;5072813;28;20036;-69
2024/01/06 02:46:40;;;;;;;2.03;1.40;;;5.90;77.50;;;7.66;57.87;96526.06;5065621;28;20049;-69
2024/01/06 02:49:08;;;;;;;3.63;1.77;;;5.80;77.40;;;7.64;57.84;96525.41;5072705;28;20481;-68
2024/01/06 02:51:36;;;;;;;5.43;1.33;;;5.80;77.60;;;7.62;57.64;96522.09;5063966;28;20042;-69
2024/01/06 02:54:04;;;;;;;5.27;2.50;;;5.70;77.70;;;7.61;57.92;96523.09;5071998;28;20045;-69
2024/01/06 02:56:31;;;;;;;4.93;1.57;;;5.70;77.70;;;7.60;57.76;96536.50;5072301;28;20123;-68
2024/01/06 02:58:59;;;;;;;5.77;1.63;;;5.70;77.40;;;7.59;58.11;96534.84;5072293;28;20052;-69
2024/01/06 03:01:27;;;;;;;4.33;2.23;;;5.80;76.80;;;7.54;57.80;96535.38;5071771;28;20052;-69
2024/01/06 03:03:54;;;;;;;3.13;1.37;;;5.70;77.30;;;7.51;57.54;96529.59;5072057;28;20043;-68
2024/01/06 03:06:22;;;;;;;5.30;2.07;;;5.70;77.00;;;7.54;57.88;96532.72;5071758;28;20492;-69
2024/01/06 03:08:50;;;;;;;6.13;1.23;;;5.70;77.10;;;7.51;57.40;96535.69;5070821;28;20037;-69
2024/01/06 03:11:17;;;;;;;5.70;1.47;;;5.70;77.10;;;7.46;57.84;96533.56;5071254;28;20051;-69
2024/01/06 03:13:45;;;;;;;1.97;1.77;;;5.70;77.00;;;7.48;57.80;96542.19;5071672;28;20041;-68
2024/01/06 03:16:13;;;;;;;9.03;2.20;;;5.70;76.80;;;7.46;57.50;96538.88;5071926;28;20040;-68
2024/01/06 03:18:40;;;;;;;4.00;1.50;;;5.70;76.60;;;7.44;57.75;96542.66;5064083;28;20041;-68
2024/01/06 03:21:18;;;;;;;3.33;1.50;;;5.60;77.10;;;7.45;57.42;96533.72;5071451;28;20047;-68
2024/01/06 03:23:48;;;;;;;5.60;2.30;;;5.70;77.10;;;7.44;57.79;96538.22;5063098;28;20035;-67
2024/01/06 03:26:17;;;;;;;4.77;2.50;;;5.60;77.10;;;7.47;57.49;96529.09;5070118;28;20412;-67
2024/01/06 03:28:44;;;;;;;3.17;1.90;;;5.60;77.30;;;7.48;57.45;96525.44;5087277;28;20043;-68
2024/01/06 03:31:12;;;;;;;4.37;1.13;;;5.60;77.10;;;7.50;57.38;96528.75;5071122;28;20041;-68
2024/01/06 03:33:40;;;;;;;3.57;1.50;;;5.60;77.00;;;7.51;57.97;96534.88;5062051;28;20048;-67
2024/01/06 03:36:08;;;;;;;7.73;1.80;;;5.60;76.70;;;7.49;57.42;96538.50;5086972;28;20044;-68
2024/01/06 03:38:36;;;;;;;5.37;2.00;;;5.60;76.90;;;7.49;57.51;96529.75;5071426;28;20051;-68
2024/01/06 03:41:04;;;;;;;9.63;2.30;;;5.70;76.80;;;7.45;57.42;96531.91;5071275;28;20523;-67
2024/01/06 03:43:31;;;;;;;2.37;1.40;;;5.70;76.30;;;7.46;57.37;96522.13;5071219;28;20044;-68
2024/01/06 03:46:00;;;;;;;7.73;2.00;;;5.60;76.90;;;7.45;57.35;96523.16;5071288;28;20041;-68
2024/01/06 03:48:27;;;;;;;7.20;1.70;;;5.60;76.50;;;7.36;57.27;96524.16;5070282;28;20067;-68
2024/01/06 03:50:56;;;;;;;4.40;1.20;;;5.50;76.50;;;7.41;57.15;96525.28;5069476;28;20041;-68
2024/01/06 03:53:24;;;;;;;3.13;1.20;;;5.60;76.90;;;7.40;57.47;96528.09;5069805;28;20056;-68
2024/01/06 03:55:53;;;;;;;2.40;1.30;;;5.50;76.70;;;7.38;57.38;96520.31;5071125;28;20093;-68
2024/01/06 03:58:21;;;;;;;3.93;1.27;;;5.50;77.10;;;7.40;57.43;96526.28;5069336;28;20050;-68
2024/01/06 04:00:49;;;;;;;4.40;1.43;;;5.60;77.20;;;7.38;57.63;96524.81;5070732;28;20052;-68
2024/01/06 04:03:17;;;;;;;2.43;1.30;;;5.50;77.00;;;7.39;57.36;96519.34;5070573;28;20040;-68
2024/01/06 04:05:44;;;;;;;3.07;1.63;;;5.50;76.90;;;7.38;56.79;96522.97;5063019;28;20048;-68
2024/01/06 04:08:12;;;;;;;2.60;1.30;;;5.50;77.00;;;7.39;57.33;96521.19;5070673;28;20052;-68
2024/01/06 04:10:41;;;;;;;3.03;1.43;;;5.60;76.80;;;7.37;57.23;96518.69;5070652;28;20045;-68
2024/01/06 04:13:09;;;;;;;3.37;1.53;;;5.50;76.70;;;7.31;57.11;96527.31;5069059;28;20056;-68
2024/01/06 04:15:36;;;;;;;3.43;1.53;;;5.50;77.20;;;7.30;57.51;96528.28;5070599;28;20052;-68
2024/01/06 04:18:05;;;;;;;4.97;1.43;;;5.50;76.90;;;7.30;57.15;96525.66;5071099;28;20052;-68
2024/01/06 04:20:33;;;;;;;2.83;1.73;;;5.50;76.80;;;7.29;57.40;96532.78;5069409;28;20051;-68
2024/01/06 04:23:01;;;;;;;5.37;1.57;;;5.50;76.80;;;7.26;57.31;96535.75;5068333;28;20048;-68
2024/01/06 04:25:28;;;;;;;3.03;1.50;;;5.50;77.00;;;7.25;57.63;96531.44;5068712;28;20448;-68
2024/01/06 04:27:56;;;;;;;3.63;1.37;;;5.50;77.30;;;7.27;57.32;96536.59;5070900;28;20045;-67
2024/01/06 04:30:25;;;;;;;1.77;1.60;;;5.50;76.80;;;7.28;57.38;96539.03;5070519;28;20134;-67
2024/01/06 04:32:52;;;;;;;10.77;3.17;;;5.50;76.80;;;7.24;57.19;96542.19;5070651;28;20040;-67
2024/01/06 04:35:21;;;;;;;3.63;1.90;;;5.40;77.00;;;7.23;57.45;96537.88;5070491;28;20040;-67
2024/01/06 04:37:49;;;;;;;2.73;1.60;;;5.40;77.00;;;7.19;57.14;96540.06;5070766;28;20488;-67
2024/01/06 04:40:17;;;;;;;4.43;1.63;;;5.30;76.40;;;7.12;57.50;96536.44;5074180;28;20036;-67
2024/01/06 04:42:44;;;;;;;5.40;1.57;;;5.30;77.70;;;7.07;57.35;96544.03;5073250;28;20067;-66
2024/01/06 04:45:12;;;;;;;2.93;1.40;;;5.30;77.40;;;7.00;57.94;96538.59;5074654;28;20040;-67
2024/01/06 04:47:39;;;;;;;7.40;2.00;;;5.20;78.30;;;6.96;57.69;96541.72;5074641;28;20044;-68
2024/01/06 04:50:07;;;;;;;2.80;1.50;;;5.20;78.30;;;6.96;57.99;96547.00;5074533;28;20416;-68
2024/01/06 04:52:35;;;;;;;8.27;2.13;;;5.10;78.80;;;6.88;58.29;96545.19;5074069;28;20048;-68
2024/01/06 04:55:03;;;;;;;3.43;1.47;;;5.10;78.70;;;6.85;58.43;96549.00;5074383;28;20044;-68
2024/01/06 04:57:31;;;;;;;5.27;2.23;;;5.10;79.30;;;6.75;58.78;96550.16;5074482;28;20516;-67
2024/01/06 04:59:59;;;;;;;4.03;1.60;;;4.90;80.00;;;6.66;58.99;96550.13;5074444;28;20051;-68
2024/01/06 05:02:27;;;;;;;4.60;2.07;;;4.90;80.50;;;6.78;58.65;96555.91;5074310;28;20048;-68
2024/01/06 05:04:55;;;;;;;3.07;1.87;;;5.00;80.50;;;6.75;58.91;96564.19;5074751;28;20045;-68
2024/01/06 05:07:22;;;;;;;3.47;1.80;;;5.00;80.50;;;6.77;59.03;96571.97;5074198;28;20264;-68
2024/01/06 05:09:50;;;;;;;4.17;1.63;;;5.00;80.80;;;6.81;58.62;96566.19;5066205;28;20040;-68
2024/01/06 05:12:17;;;;;;;2.57;1.67;;;5.10;80.70;;;6.79;58.88;96552.28;5074274;28;20044;-67
2024/01/06 05:14:45;;;;;;;6.27;2.07;;;5.10;81.00;;;6.81;59.23;96562.72;5074400;28;20045;-68
2024/01/06 05:17:13;;;;;;;5.63;2.40;;;5.10;81.10;;;6.82;58.77;96562.53;5074344;28;20053;-67
2024/01/06 05:19:40;;;;;;;6.17;2.57;;;5.10;81.10;;;6.89;58.93;96568.00;5072201;28;20051;-68
2024/01/06 05:22:08;;;;;;;5.63;2.13;;;5.10;80.90;;;6.96;58.94;96570.81;5074088;28;20044;-68
2024/01/06 05:24:36;;;;;;;3.20;2.40;;;5.20;80.10;;;6.94;58.79;96565.72;5073896;28;20092;-68
2024/01/06 05:27:04;;;;;;;2.67;2.27;;;5.20;80.10;;;6.88;59.04;96569.00;5073096;28;20507;-68
2024/01/06 05:29:31;;;;;;;4.97;2.00;;;5.20;80.30;;;6.86;59.23;96563.03;5073578;28;20519;-68
2024/01/06 05:31:59;;;;;;;4.47;2.37;;;5.20;80.90;;;6.92;58.83;96567.69;5073786;28;20051;-67
2024/01/06 05:34:27;;;;;;;4.73;2.50;;;5.20;80.70;;;6.95;59.10;96570.00;5071966;28;20504;-68
2024/01/06 05:36:54;;;;;;;3.03;1.97;;;5.20;80.20;;;6.98;58.73;96574.13;5073828;28;20044;-68
2024/01/06 05:39:22;;;;;;;4.30;2.50;;;5.20;80.30;;;6.99;58.77;96573.16;5073920;28;20048;-68
2024/01/06 05:41:50;;;;;;;2.63;1.90;;;5.20;80.30;;;7.00;58.68;96577.44;5073359;28;20419;-68
2024/01/06 05:44:17;;;;;;;4.07;2.10;;;5.20;80.60;;;7.04;58.87;96576.13;5073575;28;20408;-68
2024/01/06 05:46:45;;;;;;;4.27;2.53;;;5.30;80.40;;;7.02;58.80;96578.94;5073546;28;20047;-68
2024/01/06 05:49:13;;;;;;;4.60;2.33;;;5.30;80.20;;;7.01;58.92;96579.91;5073321;28;20405;-68
2024/01/06 05:51:45;;;;;;;7.47;3.67;;;5.20;80.10;;;7.01;58.57;96579.91;5073108;28;20048;-68
2024/01/06 05:54:13;;;;;;;6.57;2.50;;;5.20;80.50;;;7.02;58.67;96578.94;5073346;28;20058;-68
2024/01/06 05:56:41;;;;;;;4.67;2.10;;;5.20;80.30;;;7.05;58.68;96588.34;5072226;28;20048;-68
2024/01/06 05:59:09;;;;;;;3.87;2.30;;;5.30;80.20;;;6.97;58.90;96578.59;5073418;28;20036;-68
2024/01/06 06:01:36;;;;;;;6.30;2.20;;;5.20;80.30;;;6.98;58.70;96590.00;5072992;28;20041;-68
2024/01/06 06:04:04;;;;;;;4.20;2.43;;;5.20;80.20;;;6.97;58.53;96596.31;5071225;28;20036;-67
2024/01/06 06:06:32;;;;;;;4.60;3.03;;;5.20;80.60;;;6.97;58.91;96601.59;5073282;28;20045;-68
2024/01/06 06:09:00;;;;;;;4.03;2.57;;;5.10;80.50;;;6.95;58.44;96606.22;5072009;28;20047;-68
2024/01/06 06:11:28;;;;;;;3.47;2.23;;;5.10;80.80;;;7.00;58.91;96619.75;5072553;28;20043;-69
2024/01/06 06:13:55;;;;;;;5.63;2.57;;;5.10;80.70;;;7.02;58.76;96617.81;5071406;28;20057;-68
2024/01/06 06:16:23;;;;;;;4.80;2.50;;;5.20;80.60;;;7.00;58.49;96617.97;5072957;28;20056;-67
2024/01/06 06:18:51;;;;;;;6.87;2.47;;;5.10;80.50;;;6.98;58.62;96612.03;5073007;28;20096;-67
2024/01/06 06:21:18;;;;;;;5.63;2.53;;;5.10;80.90;;;6.99;58.67;96610.19;5072833;28;20492;-69
2024/01/06 06:23:46;;;;;;;3.63;1.90;;;5.10;81.10;;;7.03;59.04;96619.44;5072653;28;20048;-69
2024/01/06 06:26:13;;;;;;;2.53;1.53;;;5.20;80.70;;;7.06;59.01;96625.25;5072279;28;20401;-69
2024/01/06 06:28:41;;;;;;;2.93;1.63;;;5.20;80.30;;;7.08;58.47;96636.50;5072915;28;20411;-69
2024/01/06 06:31:09;;;;;;;3.60;2.10;;;5.20;80.00;;;7.04;58.42;96637.81;5072469;28;20484;-69
2024/01/06 06:33:36;;;;;;;3.60;2.13;;;5.10;80.00;;;7.05;58.70;96638.63;5072617;28;20040;-69
2024/01/06 06:36:05;;;;;;;3.20;2.33;;;5.10;80.20;;;7.07;58.69;96632.19;5071512;28;20415;-69
2024/01/06 06:38:32;;;;;;;3.90;2.07;;;5.20;80.80;;;7.05;58.73;96636.81;5072753;28;20045;-69
2024/01/06 06:41:00;;;;;;;4.37;1.90;;;5.20;80.20;;;7.07;58.44;96645.41;5072563;28;20051;-69
2024/01/06 06:43:28;;;;;;;3.70;1.87;;;5.30;79.40;;;7.13;59.03;96641.28;5070906;28;20059;-69
2024/01/06 06:45:55;;;;;;;3.80;1.70;;;5.30;78.90;;;7.12;58.45;96644.13;5072493;28;20492;-69
2024/01/06 06:48:24;;;;;;;3.43;1.50;;;5.30;78.20;;;7.13;58.41;96646.59;5072426;28;20041;-69
2024/01/06 06:50:52;;;;;;;2.20;1.53;;;5.30;78.30;;;7.13;58.53;96645.75;5072182;28;20040;-70
2024/01/06 06:53:19;;;;;;;2.23;1.20;;;5.40;78.00;;;7.17;58.33;96647.91;5072230;28;20048;-69
2024/01/06 06:55:47;;;;;;;2.40;1.40;;;5.40;77.50;;;7.19;58.26;96655.69;5072097;28;20502;-70
2024/01/06 06:58:15;;;;;;;2.77;1.80;;;5.40;77.00;;;7.18;57.91;96662.81;5072459;28;20427;-69
2024/01/06 07:00:42;;;;;;;1.73;1.50;;;5.40;76.20;;;7.18;58.02;96660.16;5086934;28;20085;-70
2024/01/06 07:03:10;;;;;;;1.63;1.27;;;5.40;76.90;;;7.20;57.94;96670.59;5071875;28;20422;-70
2024/01/06 07:05:39;;;;;;;1.83;1.03;;;5.40;76.40;;;7.24;57.69;96658.69;5071981;28;20518;-70
2024/01/06 07:08:06;;;;;;;3.83;1.43;;;5.50;76.10;;;7.27;57.82;96669.78;5072106;28;20041;-69
2024/01/06 07:10:34;;;;;;;2.60;1.60;;;5.60;75.70;;;7.27;57.06;96674.25;5071973;28;20389;-70
2024/01/06 07:13:02;;;;;;;2.93;1.80;;;5.50;74.80;;;7.30;57.52;96664.13;5064028;28;20040;-70
2024/01/06 07:15:29;;;;;;;2.23;2.03;;;5.50;75.00;;;7.31;57.42;96667.63;5072060;28;20073;-69
2024/01/06 07:17:57;;;;;;;2.73;1.60;;;5.70;75.10;;;7.33;57.13;96665.66;5071578;28;20055;-69
2024/01/06 07:20:25;;;;;;;2.73;1.40;;;5.60;74.50;;;7.33;56.74;96670.09;5071715;28;20053;-69
2024/01/06 07:22:52;;;;;;;2.20;1.47;;;5.60;73.70;;;7.36;56.88;96672.44;5068137;28;20526;-70
2024/01/06 07:25:20;;;;;;;2.03;1.40;;;5.60;74.40;;;7.39;56.89;96686.16;5070677;28;20408;-69
2024/01/06 07:27:48;;;;;;;2.40;1.20;;;5.70;74.50;;;7.42;56.90;96685.00;5071615;28;20045;-70
2024/01/06 07:30:19;;;;;;;5.13;2.33;;;5.70;73.90;;;7.43;56.91;96684.84;5071461;28;20045;-69
2024/01/06 07:32:47;;;;;;;4.43;2.10;;;5.70;74.40;;;7.44;56.76;96683.00;5071547;28;20044;-70
2024/01/06 07:35:16;;;;;;;2.47;1.57;;;5.70;74.50;;;7.47;56.60;96680.88;5071817;28;20044;-69
2024/01/06 07:37:43;;;;;;;2.13;1.50;;;5.60;73.30;;;7.45;56.20;96684.69;5071457;28;20052;-70
2024/01/06 07:40:16;;;;;;;2.27;1.57;;;5.60;72.70;;;7.45;56.34;96684.69;5071202;28;20041;-72
2024/01/06 07:42:44;;;;;;;3.20;2.07;;;5.60;73.80;;;7.46;56.38;96692.47;5071044;28;20060;-71
2024/01/06 07:45:13;;;;;;;3.07;1.80;;;5.70;73.50;;;7.51;56.42;96694.63;5071332;28;20041;-71
2024/01/06 07:47:42;;;;;;;2.67;1.70;;;5.80;73.50;;;7.45;56.09;96696.09;5069580;28;20051;-71
2024/01/06 07:50:10;;;;;;;2.00;1.63;;;5.70;72.80;;;7.47;56.00;96694.09;5066362;28;20070;-71
2024/01/06 07:52:37;;;;;;;2.90;1.63;;;5.70;73.30;;;7.51;56.19;96696.44;5068889;28;20040;-71
2024/01/06 07:55:05;;;;;;;2.33;1.60;;;5.80;72.90;;;7.52;55.93;96698.91;5064991;28;20675;-71
2024/01/06 07:57:33;;;;;;;1.93;1.57;;;5.70;72.90;;;7.54;56.17;96707.53;5069849;28;20515;-71
2024/01/06 08:00:01;;;;;;;2.23;1.50;;;5.70;73.50;;;7.58;56.07;96708.00;5069973;28;20071;-71
2024/01/06 08:02:38;;;;;;;4.47;1.70;;;5.80;73.30;;;7.62;56.09;96704.06;5070410;28;20057;-71
2024/01/06 08:05:07;;;;;;;4.93;1.90;;;5.80;73.10;;;7.66;56.03;96713.34;5069942;28;20051;-71
2024/01/06 08:07:34;;;;;;;3.70;2.03;;;5.80;73.50;;;7.68;55.87;96709.50;5070016;28;20059;-71
2024/01/06 08:10:05;;;;;;;2.57;1.93;;;5.90;72.80;;;7.63;55.45;96705.69;5069672;28;20044;-71
2024/01/06 08:12:34;;;;;;;2.27;1.60;;;5.70;72.30;;;7.62;55.97;96704.06;5069745;28;20044;-71
2024/01/06 08:15:02;;;;;;;2.40;1.80;;;5.70;73.50;;;7.65;56.13;96709.84;5069950;28;20040;-71
2024/01/06 08:17:29;;;;;;;3.87;3.40;;;5.80;73.60;;;7.66;55.82;96711.50;5069421;28;20048;-71
2024/01/06 08:19:57;;;;;;;3.27;1.80;;;5.80;73.50;;;7.68;56.06;96706.88;5068352;28;20431;-71
2024/01/06 08:22:25;;;;;;;5.47;1.77;;;5.80;73.40;;;7.71;56.03;96710.16;5070281;28;20049;-71
2024/01/06 08:24:52;;;;;;;3.60;1.93;;;5.90;73.70;;;7.73;55.98;96710.84;5069639;28;20531;-71
2024/01/06 08:27:21;;;;;;;3.27;2.03;;;5.90;73.20;;;7.67;55.81;96718.44;5070152;28;20051;-71
2024/01/06 08:29:49;;;;;;;2.10;1.60;;;5.70;73.50;;;7.62;55.86;96720.78;5069021;28;20071;-71
2024/01/06 08:32:17;;;;;;;2.97;1.57;;;5.70;73.90;;;7.68;55.97;96724.59;5069505;28;20044;-71
2024/01/06 08:34:45;;;;;;;1.67;1.50;;;5.80;74.10;;;7.69;55.68;96731.53;5069432;28;20044;-71
2024/01/06 08:37:13;;;;;;;1.70;1.33;;;5.90;73.50;;;7.67;55.80;96726.38;5069363;28;20260;-71
2024/01/06 08:39:41;;;;;;;3.10;1.80;;;5.90;73.30;;;7.60;55.63;96730.72;5069423;28;20048;-71
2024/01/06 08:42:08;;;;;;;3.40;2.33;;;5.80;73.50;;;7.59;55.83;96734.34;5068305;28;20107;-71
2024/01/06 08:44:36;;;;;;;2.57;1.83;;;5.80;74.10;;;7.63;55.88;96740.13;5069693;28;20040;-71
2024/01/06 08:47:04;;;;;;;3.47;1.83;;;5.80;74.10;;;7.53;55.94;96742.94;5069586;28;20050;-71
2024/01/06 08:49:32;;;;;;;3.33;1.70;;;5.80;74.50;;;7.46;56.37;96736.63;5069504;28;20476;-71
2024/01/06 08:51:59;;;;;;;2.63;2.10;;;5.70;75.00;;;7.46;56.57;96740.13;5069420;28;20047;-70
2024/01/06 08:54:27;;;;;;;4.37;2.67;;;5.60;76.00;;;7.47;56.37;96744.44;5069019;28;20053;-72
2024/01/06 08:56:55;;;;;;;6.03;2.80;;;5.60;75.50;;;7.44;56.75;96749.22;5069244;28;20071;-71
2024/01/06 08:59:23;;;;;;;2.87;2.23;;;5.60;76.00;;;7.45;56.68;96741.13;5069767;28;20045;-71
2024/01/06 09:01:51;;;;;;;3.70;2.63;;;5.60;75.80;;;7.47;56.94;96748.91;5069704;28;20053;-71
2024/01/06 09:04:19;;;;;;;3.93;2.27;;;5.70;75.90;;;7.58;56.67;96750.38;5067444;28;20053;-70
2024/01/06 09:06:47;;;;;;;3.90;1.93;;;5.80;75.80;;;7.54;56.85;96743.78;5069327;28;20047;-71
2024/01/06 09:09:14;;;;;;;4.20;2.73;;;5.80;75.60;;;7.55;57.12;96745.44;5069136;28;20131;-71
2024/01/06 09:11:44;;;;;;;4.00;2.63;;;5.80;76.20;;;7.51;57.08;96744.94;5068917;28;20047;-70
2024/01/06 09:14:11;;;;;;;4.13;3.70;;;5.80;76.40;;;7.55;57.12;96748.09;5069351;28;20044;-70
2024/01/06 09:16:39;;;;;;;5.70;3.90;;;5.80;76.60;;;7.60;56.76;96757.19;5069280;28;20052;-71
2024/01/06 09:19:07;;;;;;;4.37;3.10;;;5.80;76.80;;;7.66;56.70;96753.88;5069349;28;20299;-71
2024/01/06 09:21:35;;;;;;;5.27;2.93;;;5.90;76.80;;;7.62;56.97;96757.03;5068677;28;20056;-71
2024/01/06 09:24:06;;;;;;;4.50;3.10;;;5.80;77.20;;;7.53;57.59;96764.13;5069289;28;20052;-71
2024/01/06 09:26:37;;;;;;;3.03;2.60;;;5.70;77.80;;;7.44;57.88;96763.31;5073119;28;20310;-71
2024/01/06 09:29:04;;;;;;;3.80;2.37;;;5.70;78.60;;;7.23;58.40;96769.06;5073062;28;20059;-70
2024/01/06 09:31:32;;;;;;;5.53;2.77;;;5.60;79.50;;;7.21;58.38;96765.75;5072534;28;20056;-70
2024/01/06 09:34:04;;;;;;;5.43;2.30;;;5.50;80.70;;;7.26;58.74;96770.53;5072391;28;20056;-70
2024/01/06 09:36:32;;;;;;;3.20;2.67;;;5.50;80.70;;;7.32;58.58;96772.53;5072653;28;20178;-70
2024/01/06 09:38:59;;;;;;;4.30;3.20;;;5.60;80.90;;;7.21;59.60;96775.47;5073052;28;20047;-70
2024/01/06 09:41:27;;;;;;;5.13;3.70;;;5.50;81.70;;;7.10;59.92;96776.63;5067867;28;20049;-70
2024/01/06 09:43:55;;;;;;;3.63;2.33;;;5.40;81.90;;;7.03;59.90;96787.00;5072092;28;20496;-70
2024/01/06 09:46:29;;;;;;;2.87;2.07;;;5.40;82.30;;;7.16;59.54;96791.84;5064179;28;20048;-70
2024/01/06 09:48:58;;;;;;;5.10;2.73;;;5.40;82.60;;;7.18;59.25;96784.59;5072253;28;20227;-70
2024/01/06 09:51:29;;;;;;;2.77;2.17;;;5.50;82.80;;;7.24;59.79;96791.88;5073580;28;20041;-66
2024/01/06 09:53:58;;;;;;;4.13;3.30;;;5.50;83.00;;;7.31;59.44;96792.06;5073359;28;20492;-66
2024/01/06 09:56:29;;;;;;;7.07;2.93;;;5.60;82.50;;;7.32;59.79;96796.38;5073942;28;20053;-68
2024/01/06 09:58:57;;;;;;;3.47;2.60;;;5.70;82.30;;;7.29;60.10;96791.41;5073291;28;20052;-69
2024/01/06 10:01:25;;;;;;;3.20;2.33;;;5.60;82.00;;;7.20;59.96;96795.00;5073052;28;20451;-69
2024/01/06 10:03:52;;;;;;;8.97;4.27;;;5.60;83.60;;;7.29;59.85;96796.72;5073113;28;20048;-69
2024/01/06 10:06:20;;;;;;;4.50;2.93;;;5.60;82.90;;;7.38;60.08;96800.19;5073262;28;20103;-69
2024/01/06 10:08:51;;;;;;;3.73;2.60;;;5.60;82.60;;;7.46;59.84;96801.06;5073231;28;20052;-69
2024/01/06 10:11:26;;;;;;;5.53;4.13;;;5.80;82.20;;;7.45;59.68;96798.56;5064786;28;20048;-68
2024/01/06 10:13:54;;;;;;;3.93;3.20;;;5.80;81.50;;;7.36;59.72;96795.03;5071343;28;20048;-70
2024/01/06 10:16:22;;;;;;;4.37;2.70;;;5.70;82.30;;;7.46;59.74;96800.19;5071951;28;20045;-70
2024/01/06 10:18:50;;;;;;;3.97;2.60;;;5.80;82.20;;;7.29;60.27;96799.34;5072811;28;20507;-69
2024/01/06 10:21:21;;;;;;;4.90;3.07;;;5.70;82.20;;;7.33;60.08;96798.03;5064929;28;20041;-69
2024/01/06 10:23:50;;;;;;;5.63;2.80;;;5.60;83.00;;;7.41;59.79;96797.22;5058945;28;20052;-71
2024/01/06 10:26:18;;;;;;;3.63;2.47;;;5.60;83.20;;;7.27;60.55;96794.22;5061288;28;20120;-69
2024/01/06 10:28:50;;;;;;;5.00;3.37;;;5.60;83.40;;;7.24;60.75;96796.34;5063163;28;20045;-70
2024/01/06 10:31:18;;;;;;;3.87;3.37;;;5.60;83.40;;;7.17;60.80;96800.63;5066312;28;20044;-69
2024/01/06 10:33:46;;;;;;;5.23;3.63;;;5.50;83.70;;;7.00;61.00;96792.63;5067851;28;20041;-69
2024/01/06 10:36:15;;;;;;;5.43;3.77;;;5.40;84.70;;;7.13;60.83;96800.09;5064343;28;20044;-70